Etusivu
METAR-TAF:

METAR-TAF

Lentoasemat :

Show Low, Arizona, Yhdysvallat

Leveyspiiri: 34-16N, Pituuspiiri: 110-00W, korkeus merenpinnasta: 1954 m

Tämänhetkinen sää

Tämä raportti tehtiin 8 minuuttia sitten, kello 08.55 UTC
Tuuli 4 kn idästä/kaakosta
Lämpötila 17°C
Kosteus 77%
Ilmanpaine 1025 hPa
Näkyvyys: 16.1 km
selkeää

METAR: KSOW 200855Z AUTO 12004KT 10SM CLR 17/13 A3028 RMK AO2

Aika: 02:03 (09:03 UTC)


TAF: puuttuu

Säähavainnot ja -ennusteet yli 4000 lentoasemalta (METAR- ja TAF-raportit).

Käytössä olevat sääasemat on merkitty karttaan keltaisilla ja punaisilla pisteillä.

Aseta hiiri pisteen päälle nähdäksesi sääaseman nimen.

Klikkaa sitten nähdäksesi säähavainnot ja -ennusteet.

Kartan vaihtaminen: klikkaa mustalla rastilla varustettuja vihreitä pisteitä, niin voit zoomata sisään; viivalla varustettua vihreää pistettä, niin voit zoomata ulos tai vihreitä nuolia, niin pääset viereisille kartoille.


METAR-TAF: